avis per tempestes more information blitzortung!


avis per Pluja more information rain snow radar


Visita la nostra xarxa de llocs de meteo:

Template documentation
and downloads

And another site



Thunderstorms From: 20-07-2018 17:00 Until: 21-07-2018 01:59 warning for: Thunderstorms Level: Yellow info button
Rain From: 20-07-2018 17:00 Until: 21-07-2018 01:59 warning for: Rain Level: Yellow info button

Pagina Historial Weather Underground text

Diari Resum Juny 24, 2017 Unitats:  Mètric    Imperial   Tant
« Previous Dia
SegĂźent Dia »
Diari Setmana Mensual Anual Personalitzada
  Maxima: Minima: Media:
Temperatura: -17.8 °C -6.7 °C -2.4 °C
Punt de rosada: -17.8 °C -9.8 °C -8.1 °C
Humitat: Humidity % 39 % 54 %
Wind Speed: 0 km/h 0 km/h 12.7 km/h
RĂ fegues de vent: 0 km/h - -
Vent:- - SSW
Pression baro: 0 hPa 34293.4 hPa -
Precipitacions: 0 mm    
Historical Graphs
 
 
Dades de taula per Juny 24, 2017
Temps Temperatura Punt de rosada Pression baro Vent Wind Speed RĂ fegues de vent Humitat Rainfall Rate (Hourly)
-17.8 °C -17.8 °C 0 hPa Calm     Humidity % 0 mm
00:02 -4.4 °C -9.8 °C 34462.7 hPa WSW 6 km/h 6.8 km/h 55 % 0 mm
00:05 -6.1 °C -9 °C 34428.8 hPa Calm     72 % 0 mm
00:07 -4.4 °C -9.8 °C 34462.7 hPa WSW 6 km/h 6 km/h 55 % 0 mm
00:12 -4.5 °C -9.7 °C 34462.7 hPa SW 8 km/h 8 km/h 56 % 0 mm
00:15 -6.2 °C -9.3 °C 34428.8 hPa Calm   2.6 km/h 71 % 0 mm
00:17 -4.6 °C -9.6 °C 34462.7 hPa SW 9 km/h 9 km/h 57 % 0 mm
00:25 -6.3 °C -9.3 °C 34395 hPa Calm   2.6 km/h 71 % 0 mm
00:35 -6.4 °C -9.3 °C 34428.8 hPa Calm   2.6 km/h 72 % 0 mm
00:45 -6.4 °C -9.3 °C 34428.8 hPa Calm   2.6 km/h 72 % 0 mm
00:55 -6.4 °C -9.3 °C 34428.8 hPa NE 2.6 km/h 5.1 km/h 72 % 0 mm
01:05 -6.4 °C -9.2 °C 34428.8 hPa Calm   2.6 km/h 73 % 0 mm
01:15 -6.6 °C -9.3 °C 34428.8 hPa Calm     73 % 0 mm
01:25 -6.6 °C -9.3 °C 34428.8 hPa Calm     74 % 0 mm
01:35 -6.7 °C -9.3 °C 34428.8 hPa Calm     74 % 0 mm
01:45 -6.7 °C -9.3 °C 34428.8 hPa Calm   2.6 km/h 75 % 0 mm
01:55 -6.7 °C -9.2 °C 34428.8 hPa Calm     75 % 0 mm
02:05 -6.4 °C -9 °C 34428.8 hPa SSW 7.7 km/h 7.7 km/h 75 % 0 mm
02:15 -6.4 °C -9.1 °C 34428.8 hPa East 2.6 km/h 2.6 km/h 74 % 0 mm
02:25 -6.2 °C -8.9 °C 34462.7 hPa East 5.1 km/h 5.1 km/h 74 % 0 mm
02:35 -6.2 °C -8.9 °C 34462.7 hPa East 2.6 km/h 5.1 km/h 73 % 0 mm
02:45 -5.9 °C -8.7 °C 34462.7 hPa Calm   5.1 km/h 73 % 0 mm
02:55 -6.2 °C -9.1 °C 34496.6 hPa WSW 5.1 km/h 5.1 km/h 72 % 0 mm
03:05 -5.8 °C -8.7 °C 34462.7 hPa SW 2.6 km/h 2.6 km/h 72 % 0 mm
03:15 -5.3 °C -8.5 °C 34462.7 hPa Calm   2.6 km/h 70 % 0 mm
03:25 -5.4 °C -8.7 °C 34462.7 hPa Calm   5.1 km/h 69 % 0 mm
03:35 -4.9 °C -8.4 °C 34462.7 hPa WSW 2.6 km/h 2.6 km/h 68 % 0 mm
03:45 -4.8 °C -8.5 °C 34462.7 hPa West 5.1 km/h 5.1 km/h 66 % 0 mm
03:55 -4.7 °C -8.4 °C 34462.7 hPa West 2.6 km/h 2.6 km/h 66 % 0 mm
04:05 -4.2 °C -8.3 °C 34496.6 hPa NW 5.1 km/h 7.7 km/h 63 % 0 mm
04:15 -4.2 °C -8.3 °C 34496.6 hPa NE 5.1 km/h 5.1 km/h 63 % 0 mm
04:25 -4 °C -8.4 °C 34462.7 hPa NE 2.6 km/h 10.3 km/h 61 % 0 mm
04:35 -3.8 °C -8.7 °C 34462.7 hPa ENE 2.6 km/h 10.3 km/h 58 % 0 mm
04:45 -3.5 °C -8.4 °C 34462.7 hPa ESE 2.6 km/h 7.7 km/h 58 % 0 mm
04:55 -3.3 °C -8.7 °C 34462.7 hPa SE 2.6 km/h 10.3 km/h 55 % 0 mm
10:06 -2.9 °C -8.6 °C 34462.7 hPa NNE 3.1 km/h 3.1 km/h 54 % 0 mm
10:11 -2.7 °C -8.4 °C 34462.7 hPa NE 6.3 km/h 6.3 km/h 53 % 0 mm
10:16 -2.8 °C -8.6 °C 34462.7 hPa ENE 9 km/h 9 km/h 53 % 0 mm
10:21 -2.7 °C -8.8 °C 34462.7 hPa ENE 9 km/h 9 km/h 51 % 0 mm
10:26 -2.5 °C -8.7 °C 34462.7 hPa WNW 6 km/h 6 km/h 51 % 0 mm
10:31 -2.4 °C -8.6 °C 34462.7 hPa ESE 6 km/h 6 km/h 51 % 0 mm
10:36 -2.6 °C -9.1 °C 34462.7 hPa East 6 km/h 6 km/h 49 % 0 mm
10:41 -2.4 °C -8.7 °C 34462.7 hPa East 9 km/h 9 km/h 50 % 0 mm
10:46 -2.4 °C -8.9 °C 34428.8 hPa NE 9 km/h 9 km/h 49 % 0 mm
10:51 -2.3 °C -8.6 °C 34428.8 hPa WSW 6 km/h 6 km/h 50 % 0 mm
10:56 -2.1 °C -8.7 °C 34428.8 hPa ESE 17.9 km/h 17.9 km/h 49 % 0 mm
11:01 -2.3 °C -8.8 °C 34428.8 hPa ENE 14 km/h 14 km/h 49 % 0 mm
11:06 -2.3 °C -9 °C 34428.8 hPa ESE 6.8 km/h 6.8 km/h 48 % 0 mm
11:11 -1.9 °C -8.7 °C 34428.8 hPa SSE 9 km/h 9 km/h 48 % 0 mm
11:16 -1.7 °C -8.7 °C 34428.8 hPa ENE 11.9 km/h 11.9 km/h 47 % 0 mm
11:21 -1.9 °C -8.8 °C 34428.8 hPa SSE 17.9 km/h 17.9 km/h 47 % 0 mm
11:26 -1.9 °C -8.8 °C 34428.8 hPa WSW 15 km/h 15 km/h 47 % 0 mm
11:31 -1.9 °C -8.8 °C 34428.8 hPa NNE 11.9 km/h 11.9 km/h 47 % 0 mm
11:36 -1.7 °C -8.7 °C 34428.8 hPa SSE 15 km/h 15 km/h 47 % 0 mm
11:41 -1.7 °C -8.7 °C 34428.8 hPa East 9 km/h 9 km/h 47 % 0 mm
11:46 -1.7 °C -8.6 °C 34428.8 hPa NNW 11.9 km/h 11.9 km/h 47 % 0 mm
11:51 -1.7 °C -8.4 °C 34428.8 hPa NNE 15.3 km/h 15.3 km/h 48 % 0 mm
11:56 -1.6 °C -8.2 °C 34428.8 hPa SSW 10.3 km/h 10.3 km/h 49 % 0 mm
12:01 -1.4 °C -8 °C 34428.8 hPa East 20.9 km/h 20.9 km/h 49 % 0 mm
12:06 -1.5 °C -7.9 °C 34428.8 hPa SE 6.8 km/h 6.8 km/h 50 % 0 mm
12:11 -1.8 °C -7.8 °C 34428.8 hPa ESE 23.8 km/h 23.8 km/h 52 % 0 mm
12:16 -1.7 °C -7.6 °C 34428.8 hPa South 26.9 km/h 26.9 km/h 53 % 0 mm
12:21 -1.7 °C -7.4 °C 34428.8 hPa ESE 25.4 km/h 25.4 km/h 54 % 0 mm
12:26 -1.7 °C -7.6 °C 34428.8 hPa ESE 11.9 km/h 11.9 km/h 53 % 0 mm
12:31 -1.6 °C -7.4 °C 34395 hPa ESE 20.9 km/h 20.9 km/h 53 % 0 mm
12:36 -1.7 °C -7.3 °C 34395 hPa East 15 km/h 15 km/h 54 % 0 mm
12:41 -1.8 °C -7.1 °C 34395 hPa ENE 10.3 km/h 10.3 km/h 56 % 0 mm
12:46 -1.9 °C -7.3 °C 34428.8 hPa ENE 20.9 km/h 20.9 km/h 56 % 0 mm
12:51 -1.9 °C -7.3 °C 34428.8 hPa ESE 17.9 km/h 17.9 km/h 56 % 0 mm
12:56 -1.8 °C -7.1 °C 34428.8 hPa ESE 17.9 km/h 17.9 km/h 56 % 0 mm
13:01 -1.8 °C -7.1 °C 34395 hPa North 9 km/h 9 km/h 56 % 0 mm
13:06 -1.6 °C -7.2 °C 34395 hPa East 20.9 km/h 20.9 km/h 55 % 0 mm
13:11 -1.4 °C -7.2 °C 34395 hPa ENE 15 km/h 15 km/h 54 % 0 mm
13:16 -1.3 °C -7 °C 34395 hPa ESE 17.9 km/h 17.9 km/h 54 % 0 mm
13:21 -0.7 °C -6.8 °C 34395 hPa ESE 17.9 km/h 17.9 km/h 52 % 0 mm
13:26 -0.3 °C -7 °C 34395 hPa SW 15 km/h 15 km/h 49 % 0 mm
13:31 -0.3 °C -6.9 °C 34395 hPa SW 17.9 km/h 17.9 km/h 49 % 0 mm
13:36 -0.3 °C -7.2 °C 34395 hPa SW 19.2 km/h 19.2 km/h 48 % 0 mm
13:41 -0.1 °C -7.2 °C 34395 hPa SW 17.4 km/h 17.4 km/h 47 % 0 mm
13:46 0 °C -7.3 °C 34395 hPa SW 17.9 km/h 17.9 km/h 46 % 0 mm
13:51 -0.5 °C -7.9 °C 34395 hPa SW 23.8 km/h 23.8 km/h 45 % 0 mm
13:56 -0.2 °C -7.7 °C 34395 hPa SW 15 km/h 15 km/h 45 % 0 mm
14:01 -0.3 °C -7.7 °C 34395 hPa WSW 15 km/h 15 km/h 45 % 0 mm
14:06 -0.1 °C -7.5 °C 34395 hPa SSW 15 km/h 15 km/h 45 % 0 mm
14:11 0.1 °C -7.6 °C 34395 hPa South 11.9 km/h 11.9 km/h 44 % 0 mm
14:16 0.1 °C -7.6 °C 34395 hPa SSW 17.9 km/h 17.9 km/h 44 % 0 mm
14:21 0.2 °C -7.4 °C 34395 hPa West 15 km/h 15 km/h 44 % 0 mm
14:26 0 °C -7.9 °C 34395 hPa West 23.8 km/h 23.8 km/h 43 % 0 mm
14:31 0.2 °C -7.7 °C 34395 hPa SW 19.6 km/h 19.6 km/h 43 % 0 mm
14:36 0 °C -7.9 °C 34395 hPa South 17.9 km/h 17.9 km/h 43 % 0 mm
14:41 0.2 °C -7.7 °C 34395 hPa SW 15 km/h 15 km/h 43 % 0 mm
14:46 0.5 °C -7.4 °C 34361.1 hPa SW 20.3 km/h 20.3 km/h 43 % 0 mm
14:51 0.2 °C -7.7 °C 34361.1 hPa SW 20.3 km/h 20.3 km/h 43 % 0 mm
14:56 0.3 °C -7.6 °C 34361.1 hPa West 11.9 km/h 11.9 km/h 43 % 0 mm
15:01 0.4 °C -7.4 °C 34361.1 hPa SSW 17.9 km/h 17.9 km/h 43 % 0 mm
15:06 0.1 °C -7.7 °C 34361.1 hPa West 20.9 km/h 20.9 km/h 43 % 0 mm
15:11 0.2 °C -7.9 °C 34361.1 hPa SSE 9 km/h 9 km/h 42 % 0 mm
15:16 0.6 °C -7.6 °C 34361.1 hPa South 11.9 km/h 11.9 km/h 42 % 0 mm
15:21 0.8 °C -7.6 °C 34361.1 hPa SE 6 km/h 6 km/h 41 % 0 mm
15:26 0.9 °C -7.4 °C 34361.1 hPa SW 15.6 km/h 15.6 km/h 41 % 0 mm
15:31 0.8 °C -7.8 °C 34327.3 hPa West 20.9 km/h 20.9 km/h 40 % 0 mm
15:36 1 °C -7.6 °C 34327.3 hPa South 15 km/h 15 km/h 40 % 0 mm
15:41 1.2 °C -7.4 °C 34327.3 hPa SSW 11.9 km/h 11.9 km/h 40 % 0 mm
15:46 0.9 °C -7.7 °C 34327.3 hPa South 15 km/h 15 km/h 40 % 0 mm
15:51 0.8 °C -8 °C 34327.3 hPa South 11.9 km/h 11.9 km/h 39 % 0 mm
15:56 1 °C -7.6 °C 34327.3 hPa WSW 11.9 km/h 11.9 km/h 40 % 0 mm
16:01 1.2 °C -7.4 °C 34327.3 hPa WSW 15.3 km/h 15.3 km/h 40 % 0 mm
16:06 0.7 °C -7.9 °C 34327.3 hPa West 25.1 km/h 25.1 km/h 40 % 0 mm
16:11 0.5 °C -7.8 °C 34327.3 hPa SW 15 km/h 15 km/h 41 % 0 mm
16:16 0.7 °C -7.8 °C 34327.3 hPa South 16.1 km/h 16.1 km/h 40 % 0 mm
16:17 0.8 °C -7.7 °C 34327.3 hPa South 16.1 km/h 16.1 km/h 40 % 0 mm
16:22 0.7 °C -7.6 °C 34327.3 hPa SW 29.8 km/h 29.8 km/h 41 % 0 mm
16:27 0.6 °C -7.6 °C 34327.3 hPa SSW 20.9 km/h 20.9 km/h 42 % 0 mm
16:32 0.4 °C -7.5 °C 34327.3 hPa SW 17.9 km/h 17.9 km/h 43 % 0 mm
16:37 0 °C -7.9 °C 34327.3 hPa WSW 20.9 km/h 20.9 km/h 43 % 0 mm
16:40 -3.1 °C -8.1 °C 34327.3 hPa SW 5.1 km/h 12.9 km/h 58 % 0 mm
16:42 0.1 °C -7.6 °C 34327.3 hPa WSW 20.9 km/h 20.9 km/h 44 % 0 mm
16:47 -0.1 °C -7.7 °C 34293.4 hPa West 15 km/h 15 km/h 44 % 0 mm
16:50 -3.3 °C -8.1 °C 34327.3 hPa SW 7.7 km/h 10.3 km/h 59 % 0 mm
16:52 0 °C -7.4 °C 34293.4 hPa SW 23.8 km/h 23.8 km/h 45 % 0 mm
16:57 -0.2 °C -7.7 °C 34293.4 hPa South 27.2 km/h 27.2 km/h 45 % 0 mm
17:02 -0.2 °C -7.4 °C 34293.4 hPa West 29.8 km/h 29.8 km/h 46 % 0 mm
17:07 -0.4 °C -7.6 °C 34293.4 hPa West 23.8 km/h 23.8 km/h 46 % 0 mm
17:12 -0.7 °C -7.7 °C 34293.4 hPa SW 26.9 km/h 26.9 km/h 47 % 0 mm
17:17 -0.6 °C -7.4 °C 34327.3 hPa SW 16.1 km/h 16.1 km/h 48 % 0 mm
17:22 -0.7 °C -7.6 °C 34327.3 hPa SW 20.9 km/h 20.9 km/h 48 % 0 mm
17:27 -1 °C -7.8 °C 34327.3 hPa SSW 32.8 km/h 32.8 km/h 48 % 0 mm
17:32 -1 °C -7.8 °C 34327.3 hPa South 29.8 km/h 29.8 km/h 48 % 0 mm
17:37 -1.1 °C -7.7 °C 34327.3 hPa West 20.9 km/h 20.9 km/h 49 % 0 mm
17:42 -1.1 °C -7.9 °C 34327.3 hPa SW 26.9 km/h 26.9 km/h 48 % 0 mm
17:47 -1.1 °C -7.8 °C 34327.3 hPa SW 20.9 km/h 20.9 km/h 48 % 0 mm
17:52 -1.2 °C -7.9 °C 34327.3 hPa SSW 23.8 km/h 23.8 km/h 48 % 0 mm
17:57 -1.3 °C -7.9 °C 34327.3 hPa SW 16.1 km/h 16.1 km/h 49 % 0 mm
18:02 -1.3 °C -7.9 °C 34327.3 hPa WSW 15 km/h 15 km/h 49 % 0 mm
18:07 -1.4 °C -8 °C 34327.3 hPa SW 29.8 km/h 29.8 km/h 49 % 0 mm
18:12 -1.6 °C -7.9 °C 34327.3 hPa South 26.9 km/h 26.9 km/h 50 % 0 mm
18:17 -1.6 °C -7.9 °C 34327.3 hPa SSW 20.9 km/h 20.9 km/h 50 % 0 mm
18:22 -1.5 °C -7.7 °C 34327.3 hPa SW 11.9 km/h 11.9 km/h 51 % 0 mm
18:27 -1.5 °C -7.7 °C 34327.3 hPa SW 15 km/h 15 km/h 51 % 0 mm
18:32 -1.5 °C -7.7 °C 34327.3 hPa SSE 15 km/h 15 km/h 51 % 0 mm
18:37 -1.6 °C -7.7 °C 34327.3 hPa WSW 17.9 km/h 17.9 km/h 52 % 0 mm
18:42 -1.8 °C -7.6 °C 34327.3 hPa South 23.8 km/h 23.8 km/h 53 % 0 mm
18:47 -1.9 °C -7.7 °C 34327.3 hPa SW 17.9 km/h 17.9 km/h 53 % 0 mm
18:52 -1.9 °C -7.8 °C 34327.3 hPa SW 32.8 km/h 32.8 km/h 53 % 0 mm
18:57 -2 °C -7.7 °C 34327.3 hPa South 11.9 km/h 11.9 km/h 54 % 0 mm
19:02 -1.8 °C -7.4 °C 34327.3 hPa SW 11.9 km/h 11.9 km/h 54 % 0 mm
19:07 -1.6 °C -7.4 °C 34327.3 hPa SW 11.9 km/h 11.9 km/h 53 % 0 mm
19:12 -1.7 °C -7.4 °C 34327.3 hPa West 17.9 km/h 17.9 km/h 54 % 0 mm
19:17 -1.7 °C -7.4 °C 34327.3 hPa SSW 26.9 km/h 26.9 km/h 54 % 0 mm
19:22 -1.7 °C -7.4 °C 34327.3 hPa SSW 17.9 km/h 17.9 km/h 54 % 0 mm
19:27 -1.7 °C -7.6 °C 34327.3 hPa SSW 20.9 km/h 20.9 km/h 53 % 0 mm
19:32 -1.7 °C -7.3 °C 34327.3 hPa SW 16.1 km/h 16.1 km/h 54 % 0 mm
19:37 -1.9 °C -7.4 °C 34327.3 hPa SSW 17.9 km/h 17.9 km/h 55 % 0 mm
19:42 -1.8 °C -7.3 °C 34327.3 hPa SW 14 km/h 14 km/h 55 % 0 mm
19:48 -1.9 °C -7.6 °C 34327.3 hPa SW 16.1 km/h 16.1 km/h 54 % 0 mm
19:53 -1.9 °C -7.6 °C 34327.3 hPa SW 14 km/h 14 km/h 54 % 0 mm
19:58 -2 °C -7.5 °C 34293.4 hPa WSW 17.9 km/h 17.9 km/h 55 % 0 mm
20:03 -2.2 °C -7.7 °C 34293.4 hPa SW 15 km/h 15 km/h 55 % 0 mm
20:08 -2.2 °C -7.5 °C 34293.4 hPa SW 11.9 km/h 11.9 km/h 56 % 0 mm
20:13 -2.2 °C -7.7 °C 34293.4 hPa SSW 15 km/h 15 km/h 55 % 0 mm
20:18 -2.2 °C -7.7 °C 34327.3 hPa WSW 15 km/h 15 km/h 55 % 0 mm
20:23 -2.3 °C -7.7 °C 34327.3 hPa WNW 15 km/h 15 km/h 56 % 0 mm
20:28 -2.4 °C -7.7 °C 34293.4 hPa West 14.5 km/h 14.5 km/h 56 % 0 mm
20:33 -2.4 °C -7.7 °C 34293.4 hPa WSW 15 km/h 15 km/h 56 % 0 mm
20:38 -2.5 °C -7.8 °C 34293.4 hPa SW 11.9 km/h 11.9 km/h 56 % 0 mm
20:43 -2.5 °C -7.9 °C 34293.4 hPa SW 11.9 km/h 11.9 km/h 55 % 0 mm
20:48 -2.5 °C -7.9 °C 34293.4 hPa SW 9 km/h 9 km/h 55 % 0 mm
20:53 -2.6 °C -8 °C 34293.4 hPa SSW 6.8 km/h 6.8 km/h 55 % 0 mm
20:58 -2.6 °C -8.1 °C 34293.4 hPa SSW 6 km/h 6 km/h 55 % 0 mm
21:03 -2.7 °C -8.1 °C 34293.4 hPa SW 9 km/h 9 km/h 55 % 0 mm
21:08 -2.7 °C -8.2 °C 34293.4 hPa SW 9.3 km/h 9.3 km/h 55 % 0 mm
21:13 -2.8 °C -8.2 °C 34293.4 hPa SW 11.9 km/h 11.9 km/h 55 % 0 mm
21:18 -2.8 °C -8.1 °C 34293.4 hPa SW 15 km/h 15 km/h 56 % 0 mm
22:00 -3.6 °C -8.1 °C 34327.3 hPa SW 9 km/h 9 km/h 61 % 0 mm
22:05 -3.7 °C -8.2 °C 34327.3 hPa SW 9 km/h 9 km/h 61 % 0 mm
22:10 -3.8 °C -8.2 °C 34327.3 hPa WSW 11.9 km/h 11.9 km/h 62 % 0 mm
22:15 -3.9 °C -8.2 °C 34293.4 hPa WSW 11.9 km/h 11.9 km/h 62 % 0 mm
22:20 -4 °C -8.2 °C 34293.4 hPa WSW 11.9 km/h 11.9 km/h 63 % 0 mm
22:25 -4.1 °C -8.1 °C 34293.4 hPa WSW 16.6 km/h 16.6 km/h 64 % 0 mm
22:30 -4.1 °C -8.2 °C 34327.3 hPa SW 15 km/h 15 km/h 64 % 0 mm
22:35 -4.2 °C -8.1 °C 34327.3 hPa SW 7.7 km/h 18.2 km/h 65 % 0 mm
22:40 -4.3 °C -8.2 °C 34327.3 hPa SW 7.7 km/h 18.2 km/h 65 % 0 mm
22:45 -4.3 °C -8.1 °C 34327.3 hPa SW 7.7 km/h 15.6 km/h 66 % 0 mm
22:50 -4.4 °C -8.2 °C 34327.3 hPa SW 5.1 km/h 15.6 km/h 66 % 0 mm
22:55 -4.4 °C -8.1 °C 34327.3 hPa SW 5.1 km/h 15.6 km/h 67 % 0 mm
23:00 -4.4 °C -8.1 °C 34361.1 hPa SW 5.1 km/h 12.9 km/h 67 % 0 mm
23:05 -4.5 °C -8 °C 34361.1 hPa SW 5.1 km/h 12.9 km/h 68 % 0 mm
23:10 -4.6 °C -8 °C 34361.1 hPa SW 5.1 km/h 7.7 km/h 68 % 0 mm
23:15 -4.6 °C -7.9 °C 34361.1 hPa SW 15 km/h 15 km/h 69 % 0 mm
23:20 -4.6 °C -7.9 °C 34361.1 hPa SW 6 km/h 6 km/h 69 % 0 mm
23:22 -4.7 °C -8 °C 34361.1 hPa SW 6 km/h 6 km/h 69 % 0 mm
23:27 -4.7 °C -8 °C 34361.1 hPa WSW 9 km/h 9 km/h 69 % 0 mm
23:32 -4.7 °C -8.1 °C 34361.1 hPa SW 9 km/h 9 km/h 69 % 0 mm
23:37 -4.7 °C -7.9 °C 34361.1 hPa SW 6 km/h 6 km/h 70 % 0 mm
23:42 -4.8 °C -8 °C 34361.1 hPa WSW 6 km/h 6 km/h 70 % 0 mm
23:47 -4.8 °C -8 °C 34361.1 hPa SW 3.1 km/h   70 % 0 mm
23:52 -4.8 °C -8 °C 34361.1 hPa SW 6 km/h 6 km/h 70 % 0 mm
23:57 -4.8 °C -7.9 °C 34361.1 hPa WSW 4.2 km/h   71 % 0 mm
Meteo Sesrovires
Elogis d' Weather Underground - 2 mb

Guio original per  Jim McMurry - jmcmurry@mwt.net Adaptat per a la plantilla per  Wim van der Kuil - Leuven-Template.eu

Trobareu la nostra informacio del temps tambe a:

Weather Underground

AWEKAS